sensor_id;sensor_type;location;lat;lon;timestamp;pressure;altitude;pressure_sealevel;temperature;humidity
51687;BME280;37774;52.192;4.584;2023-02-04T00:01:29;104082.25;;;6.76;100.00
51687;BME280;37774;52.192;4.584;2023-02-04T00:03:56;103726.56;;;4.59;100.00
51687;BME280;37774;52.192;4.584;2023-02-04T00:06:23;104121.91;;;6.77;100.00
51687;BME280;37774;52.192;4.584;2023-02-04T00:08:49;103742.19;;;4.76;100.00
51687;BME280;37774;52.192;4.584;2023-02-04T00:11:18;103764.81;;;4.80;100.00
51687;BME280;37774;52.192;4.584;2023-02-04T00:13:45;104081.56;;;6.65;100.00
51687;BME280;37774;52.192;4.584;2023-02-04T00:16:11;104045.88;;;6.45;100.00
51687;BME280;37774;52.192;4.584;2023-02-04T00:18:38;104097.69;;;6.61;100.00
51687;BME280;37774;52.192;4.584;2023-02-04T00:21:05;104106.63;;;6.66;100.00
51687;BME280;37774;52.192;4.584;2023-02-04T00:23:32;103716.69;;;4.25;100.00
51687;BME280;37774;52.192;4.584;2023-02-04T00:25:58;104069.97;;;6.30;100.00
51687;BME280;37774;52.192;4.584;2023-02-04T00:28:26;103900.75;;;5.38;100.00
51687;BME280;37774;52.192;4.584;2023-02-04T00:30:53;104130.88;;;6.68;100.00
51687;BME280;37774;52.192;4.584;2023-02-04T00:33:20;104051.13;;;6.18;100.00
51687;BME280;37774;52.192;4.584;2023-02-04T00:35:47;104134.25;;;6.67;100.00
51687;BME280;37774;52.192;4.584;2023-02-04T00:38:13;103720.03;;;4.24;100.00
51687;BME280;37774;52.192;4.584;2023-02-04T00:40:40;104097.00;;;6.35;100.00
51687;BME280;37774;52.192;4.584;2023-02-04T00:43:07;104139.22;;;6.64;100.00
51687;BME280;37774;52.192;4.584;2023-02-04T00:45:35;104145.81;;;6.59;100.00
51687;BME280;37774;52.192;4.584;2023-02-04T00:48:02;104150.19;;;6.60;100.00
51687;BME280;37774;52.192;4.584;2023-02-04T00:50:29;104103.44;;;6.28;100.00
51687;BME280;37774;52.192;4.584;2023-02-04T00:52:56;103739.72;;;4.23;100.00
51687;BME280;37774;52.192;4.584;2023-02-04T00:55:26;104160.44;;;6.58;100.00
51687;BME280;37774;52.192;4.584;2023-02-04T00:57:53;104051.34;;;5.80;100.00
51687;BME280;37774;52.192;4.584;2023-02-04T01:00:19;104024.56;;;5.65;100.00
51687;BME280;37774;52.192;4.584;2023-02-04T01:02:48;104175.56;;;6.52;100.00
51687;BME280;37774;52.192;4.584;2023-02-04T01:05:15;104091.50;;;6.02;100.00
51687;BME280;37774;52.192;4.584;2023-02-04T01:07:41;104168.41;;;6.48;100.00
51687;BME280;37774;52.192;4.584;2023-02-04T01:10:08;104180.72;;;6.52;100.00
51687;BME280;37774;52.192;4.584;2023-02-04T01:12:35;104186.78;;;6.53;100.00
51687;BME280;37774;52.192;4.584;2023-02-04T01:15:03;104185.97;;;6.54;100.00
51687;BME280;37774;52.192;4.584;2023-02-04T01:17:30;104182.44;;;6.38;100.00
51687;BME280;37774;52.192;4.584;2023-02-04T01:19:58;104105.56;;;5.94;100.00
51687;BME280;37774;52.192;4.584;2023-02-04T01:22:26;104203.28;;;6.55;100.00
51687;BME280;37774;52.192;4.584;2023-02-04T01:24:52;104126.03;;;6.04;100.00
51687;BME280;37774;52.192;4.584;2023-02-04T01:27:19;104209.94;;;6.51;100.00
51687;BME280;37774;52.192;4.584;2023-02-04T01:29:46;103987.47;;;5.22;100.00
51687;BME280;37774;52.192;4.584;2023-02-04T01:32:12;104227.03;;;6.49;100.00
51687;BME280;37774;52.192;4.584;2023-02-04T01:34:39;104221.56;;;6.45;100.00
51687;BME280;37774;52.192;4.584;2023-02-04T01:37:07;104220.69;;;6.44;100.00
51687;BME280;37774;52.192;4.584;2023-02-04T01:39:34;104228.22;;;6.54;100.00
51687;BME280;37774;52.192;4.584;2023-02-04T01:42:01;103989.25;;;5.10;100.00
51687;BME280;37774;52.192;4.584;2023-02-04T01:44:28;104225.66;;;6.54;100.00
51687;BME280;37774;52.192;4.584;2023-02-04T01:46:55;103949.63;;;4.82;100.00
51687;BME280;37774;52.192;4.584;2023-02-04T01:49:23;104245.94;;;6.48;100.00
51687;BME280;37774;52.192;4.584;2023-02-04T01:51:50;103880.69;;;4.39;100.00
51687;BME280;37774;52.192;4.584;2023-02-04T01:54:18;104245.22;;;6.51;100.00
51687;BME280;37774;52.192;4.584;2023-02-04T01:56:46;104186.31;;;6.05;100.00
51687;BME280;37774;52.192;4.584;2023-02-04T01:59:17;104175.88;;;5.90;100.00
51687;BME280;37774;52.192;4.584;2023-02-04T02:01:45;104187.19;;;5.92;100.00
51687;BME280;37774;52.192;4.584;2023-02-04T02:04:14;104271.56;;;6.45;100.00
51687;BME280;37774;52.192;4.584;2023-02-04T02:06:44;104270.47;;;6.55;100.00
51687;BME280;37774;52.192;4.584;2023-02-04T02:09:12;104205.19;;;6.17;100.00
51687;BME280;37774;52.192;4.584;2023-02-04T02:11:41;104216.03;;;6.25;100.00
51687;BME280;37774;52.192;4.584;2023-02-04T02:14:08;104167.53;;;5.94;100.00
51687;BME280;37774;52.192;4.584;2023-02-04T02:16:35;104233.31;;;6.39;100.00
51687;BME280;37774;52.192;4.584;2023-02-04T02:19:03;104258.34;;;6.54;100.00
51687;BME280;37774;52.192;4.584;2023-02-04T02:21:36;104240.97;;;6.38;100.00
51687;BME280;37774;52.192;4.584;2023-02-04T02:24:23;104276.81;;;6.60;100.00
51687;BME280;37774;52.192;4.584;2023-02-04T02:26:51;104255.28;;;6.46;100.00
51687;BME280;37774;52.192;4.584;2023-02-04T02:29:18;104284.88;;;6.65;100.00
51687;BME280;37774;52.192;4.584;2023-02-04T02:31:45;103955.34;;;4.65;100.00
51687;BME280;37774;52.192;4.584;2023-02-04T02:34:12;104285.38;;;6.59;100.00
51687;BME280;37774;52.192;4.584;2023-02-04T02:36:38;104293.22;;;6.61;100.00
51687;BME280;37774;52.192;4.584;2023-02-04T02:39:05;104331.59;;;6.68;100.00
51687;BME280;37774;52.192;4.584;2023-02-04T02:41:34;104124.59;;;5.55;100.00
51687;BME280;37774;52.192;4.584;2023-02-04T02:44:01;104092.03;;;5.44;100.00
51687;BME280;37774;52.192;4.584;2023-02-04T02:46:28;104282.75;;;6.72;100.00
51687;BME280;37774;52.192;4.584;2023-02-04T02:48:55;104282.56;;;6.69;100.00
51687;BME280;37774;52.192;4.584;2023-02-04T02:51:21;104225.56;;;6.39;100.00
51687;BME280;37774;52.192;4.584;2023-02-04T02:53:48;104284.28;;;6.69;100.00
51687;BME280;37774;52.192;4.584;2023-02-04T02:56:16;104279.72;;;6.65;100.00
51687;BME280;37774;52.192;4.584;2023-02-04T02:58:44;104285.94;;;6.68;100.00
51687;BME280;37774;52.192;4.584;2023-02-04T03:01:11;104289.53;;;6.70;100.00
51687;BME280;37774;52.192;4.584;2023-02-04T03:03:40;104291.91;;;6.67;100.00
51687;BME280;37774;52.192;4.584;2023-02-04T03:06:12;104293.09;;;6.72;100.00
51687;BME280;37774;52.192;4.584;2023-02-04T03:08:41;104287.66;;;6.68;100.00
51687;BME280;37774;52.192;4.584;2023-02-04T03:11:09;104238.16;;;6.35;100.00
51687;BME280;37774;52.192;4.584;2023-02-04T03:13:36;104258.13;;;6.51;100.00
51687;BME280;37774;52.192;4.584;2023-02-04T03:16:05;103911.59;;;4.39;100.00
51687;BME280;37774;52.192;4.584;2023-02-04T03:18:34;104297.19;;;6.69;100.00
51687;BME280;37774;52.192;4.584;2023-02-04T03:21:02;104298.78;;;6.67;100.00
51687;BME280;37774;52.192;4.584;2023-02-04T03:23:31;104294.03;;;6.73;100.00
51687;BME280;37774;52.192;4.584;2023-02-04T03:25:59;104233.50;;;6.29;100.00
51687;BME280;37774;52.192;4.584;2023-02-04T03:28:26;104304.97;;;6.69;100.00
51687;BME280;37774;52.192;4.584;2023-02-04T03:30:53;104298.69;;;6.65;100.00
51687;BME280;37774;52.192;4.584;2023-02-04T03:33:22;104318.09;;;6.58;100.00
51687;BME280;37774;52.192;4.584;2023-02-04T03:35:50;104313.91;;;6.61;100.00
51687;BME280;37774;52.192;4.584;2023-02-04T03:38:17;104336.66;;;6.66;100.00
51687;BME280;37774;52.192;4.584;2023-02-04T03:40:44;104302.38;;;6.69;100.00
51687;BME280;37774;52.192;4.584;2023-02-04T03:43:11;104299.28;;;6.61;100.00
51687;BME280;37774;52.192;4.584;2023-02-04T03:45:37;104258.16;;;6.37;100.00
51687;BME280;37774;52.192;4.584;2023-02-04T03:48:04;104297.50;;;6.60;100.00
51687;BME280;37774;52.192;4.584;2023-02-04T03:50:33;104234.91;;;6.24;100.00
51687;BME280;37774;52.192;4.584;2023-02-04T03:52:59;104299.47;;;6.64;100.00
51687;BME280;37774;52.192;4.584;2023-02-04T03:55:26;104295.22;;;6.65;100.00
51687;BME280;37774;52.192;4.584;2023-02-04T03:57:53;104299.25;;;6.75;100.00
51687;BME280;37774;52.192;4.584;2023-02-04T04:00:20;104276.63;;;6.57;100.00
51687;BME280;37774;52.192;4.584;2023-02-04T04:02:47;104259.84;;;6.37;100.00
51687;BME280;37774;52.192;4.584;2023-02-04T04:05:14;104011.72;;;4.99;100.00
51687;BME280;37774;52.192;4.584;2023-02-04T04:07:42;104303.06;;;6.66;100.00
51687;BME280;37774;52.192;4.584;2023-02-04T04:10:10;104308.34;;;6.68;100.00
51687;BME280;37774;52.192;4.584;2023-02-04T04:12:37;104252.38;;;6.41;100.00
51687;BME280;37774;52.192;4.584;2023-02-04T04:15:05;103927.75;;;4.37;100.00
51687;BME280;37774;52.192;4.584;2023-02-04T04:17:32;104326.91;;;6.76;100.00
51687;BME280;37774;52.192;4.584;2023-02-04T04:20:00;104322.25;;;6.70;100.00
51687;BME280;37774;52.192;4.584;2023-02-04T04:22:26;104259.13;;;6.26;100.00
51687;BME280;37774;52.192;4.584;2023-02-04T04:24:54;104324.13;;;6.72;100.00
51687;BME280;37774;52.192;4.584;2023-02-04T04:27:21;104139.59;;;5.61;100.00
51687;BME280;37774;52.192;4.584;2023-02-04T04:29:48;104332.88;;;6.75;100.00
51687;BME280;37774;52.192;4.584;2023-02-04T04:32:15;104208.88;;;6.07;100.00
51687;BME280;37774;52.192;4.584;2023-02-04T04:34:42;104324.13;;;6.72;100.00
51687;BME280;37774;52.192;4.584;2023-02-04T04:37:08;104324.84;;;6.70;100.00
51687;BME280;37774;52.192;4.584;2023-02-04T04:39:35;104077.22;;;5.28;100.00
51687;BME280;37774;52.192;4.584;2023-02-04T04:42:04;104312.59;;;6.54;100.00
51687;BME280;37774;52.192;4.584;2023-02-04T04:44:30;104078.28;;;5.18;100.00
51687;BME280;37774;52.192;4.584;2023-02-04T04:46:57;104343.00;;;6.71;100.00
51687;BME280;37774;52.192;4.584;2023-02-04T04:49:24;104128.31;;;5.34;100.00
51687;BME280;37774;52.192;4.584;2023-02-04T04:51:51;104081.97;;;5.22;100.00
51687;BME280;37774;52.192;4.584;2023-02-04T04:54:18;104356.44;;;6.79;100.00
51687;BME280;37774;52.192;4.584;2023-02-04T04:56:44;104333.06;;;6.78;100.00
51687;BME280;37774;52.192;4.584;2023-02-04T04:59:13;104248.22;;;6.17;100.00
51687;BME280;37774;52.192;4.584;2023-02-04T05:01:40;104330.00;;;6.70;100.00
51687;BME280;37774;52.192;4.584;2023-02-04T05:04:06;104338.97;;;6.75;100.00
51687;BME280;37774;52.192;4.584;2023-02-04T05:06:33;104328.81;;;6.78;100.00
51687;BME280;37774;52.192;4.584;2023-02-04T05:09:00;104331.47;;;6.80;100.00
51687;BME280;37774;52.192;4.584;2023-02-04T05:11:27;104326.13;;;6.77;100.00
51687;BME280;37774;52.192;4.584;2023-02-04T05:13:53;104329.69;;;6.79;100.00
51687;BME280;37774;52.192;4.584;2023-02-04T05:16:22;104320.94;;;6.77;100.00
51687;BME280;37774;52.192;4.584;2023-02-04T05:18:49;104236.28;;;6.19;100.00
51687;BME280;37774;52.192;4.584;2023-02-04T05:21:15;104321.13;;;6.80;100.00
51687;BME280;37774;52.192;4.584;2023-02-04T05:23:42;104329.41;;;6.74;100.00
51687;BME280;37774;52.192;4.584;2023-02-04T05:26:09;104254.25;;;6.31;100.00
51687;BME280;37774;52.192;4.584;2023-02-04T05:28:35;104337.66;;;6.68;100.00
51687;BME280;37774;52.192;4.584;2023-02-04T05:31:02;104366.41;;;6.73;100.00
51687;BME280;37774;52.192;4.584;2023-02-04T05:33:30;103978.38;;;4.50;100.00
51687;BME280;37774;52.192;4.584;2023-02-04T05:35:57;104355.53;;;6.79;100.00
51687;BME280;37774;52.192;4.584;2023-02-04T05:38:24;104017.63;;;4.59;100.00
51687;BME280;37774;52.192;4.584;2023-02-04T05:40:51;104140.84;;;5.54;100.00
51687;BME280;37774;52.192;4.584;2023-02-04T05:43:18;104351.09;;;6.76;100.00
51687;BME280;37774;52.192;4.584;2023-02-04T05:45:44;104360.44;;;6.74;100.00
51687;BME280;37774;52.192;4.584;2023-02-04T05:48:11;104052.47;;;4.91;100.00
51687;BME280;37774;52.192;4.584;2023-02-04T05:50:39;104365.41;;;6.71;100.00
51687;BME280;37774;52.192;4.584;2023-02-04T05:53:06;104370.84;;;6.76;100.00
51687;BME280;37774;52.192;4.584;2023-02-04T05:55:33;104294.31;;;6.24;100.00
51687;BME280;37774;52.192;4.584;2023-02-04T05:58:00;104391.53;;;6.76;100.00
51687;BME280;37774;52.192;4.584;2023-02-04T06:00:26;104250.53;;;6.00;100.00
51687;BME280;37774;52.192;4.584;2023-02-04T06:02:53;104412.41;;;6.79;100.00
51687;BME280;37774;52.192;4.584;2023-02-04T06:05:20;104410.75;;;6.79;100.00
51687;BME280;37774;52.192;4.584;2023-02-04T06:07:49;104338.03;;;6.48;100.00
51687;BME280;37774;52.192;4.584;2023-02-04T06:10:16;104406.66;;;6.83;100.00
51687;BME280;37774;52.192;4.584;2023-02-04T06:12:43;103996.50;;;4.26;100.00
51687;BME280;37774;52.192;4.584;2023-02-04T06:15:10;104290.06;;;5.99;100.00
51687;BME280;37774;52.192;4.584;2023-02-04T06:17:37;104409.81;;;6.79;100.00
51687;BME280;37774;52.192;4.584;2023-02-04T06:20:05;104337.22;;;6.22;100.00
51687;BME280;37774;52.192;4.584;2023-02-04T06:22:31;104408.94;;;6.78;100.00
51687;BME280;37774;52.192;4.584;2023-02-04T06:25:00;104368.38;;;6.50;100.00
51687;BME280;37774;52.192;4.584;2023-02-04T06:27:27;104221.22;;;5.47;100.00
51687;BME280;37774;52.192;4.584;2023-02-04T06:29:54;104380.78;;;6.56;100.00
51687;BME280;37774;52.192;4.584;2023-02-04T06:32:21;104392.31;;;6.61;100.00
51687;BME280;37774;52.192;4.584;2023-02-04T06:34:48;104394.03;;;6.61;100.00
51687;BME280;37774;52.192;4.584;2023-02-04T06:37:15;104433.50;;;6.85;100.00
51687;BME280;37774;52.192;4.584;2023-02-04T06:39:42;104435.09;;;6.83;100.00
51687;BME280;37774;52.192;4.584;2023-02-04T06:42:11;104371.63;;;6.48;100.00
51687;BME280;37774;52.192;4.584;2023-02-04T06:44:38;104428.72;;;6.78;100.00
51687;BME280;37774;52.192;4.584;2023-02-04T06:47:04;104342.19;;;6.19;100.00
51687;BME280;37774;52.192;4.584;2023-02-04T06:49:31;104431.72;;;6.84;100.00
51687;BME280;37774;52.192;4.584;2023-02-04T06:51:58;104249.84;;;5.64;100.00
51687;BME280;37774;52.192;4.584;2023-02-04T06:54:25;104422.56;;;6.76;100.00
51687;BME280;37774;52.192;4.584;2023-02-04T06:56:52;104415.50;;;6.73;100.00
51687;BME280;37774;52.192;4.584;2023-02-04T06:59:20;104436.00;;;6.83;100.00
51687;BME280;37774;52.192;4.584;2023-02-04T07:01:47;104442.75;;;6.81;100.00
51687;BME280;37774;52.192;4.584;2023-02-04T07:04:14;104441.25;;;6.85;100.00
51687;BME280;37774;52.192;4.584;2023-02-04T07:06:41;104458.94;;;6.79;100.00
51687;BME280;37774;52.192;4.584;2023-02-04T07:09:08;104447.59;;;6.63;100.00
51687;BME280;37774;52.192;4.584;2023-02-04T07:11:34;104453.69;;;6.77;100.00
51687;BME280;37774;52.192;4.584;2023-02-04T07:14:01;104450.41;;;6.80;100.00
51687;BME280;37774;52.192;4.584;2023-02-04T07:16:29;104438.97;;;6.76;100.00
51687;BME280;37774;52.192;4.584;2023-02-04T07:18:56;104387.31;;;6.37;100.00
51687;BME280;37774;52.192;4.584;2023-02-04T07:21:23;104447.94;;;6.81;100.00
51687;BME280;37774;52.192;4.584;2023-02-04T07:23:49;104458.03;;;6.65;100.00
51687;BME280;37774;52.192;4.584;2023-02-04T07:26:16;104273.19;;;5.65;100.00
51687;BME280;37774;52.192;4.584;2023-02-04T07:28:43;104072.59;;;4.34;100.00
51687;BME280;37774;52.192;4.584;2023-02-04T07:31:10;104476.47;;;6.83;100.00
51687;BME280;37774;52.192;4.584;2023-02-04T07:33:38;104256.94;;;5.54;100.00
51687;BME280;37774;52.192;4.584;2023-02-04T07:36:05;104466.63;;;6.77;100.00
51687;BME280;37774;52.192;4.584;2023-02-04T07:38:32;104028.34;;;4.15;100.00
51687;BME280;37774;52.192;4.584;2023-02-04T07:40:59;104371.38;;;6.18;100.00
51687;BME280;37774;52.192;4.584;2023-02-04T07:43:26;104488.59;;;6.84;100.00
51687;BME280;37774;52.192;4.584;2023-02-04T07:45:52;104492.97;;;6.85;100.00
51687;BME280;37774;52.192;4.584;2023-02-04T07:48:19;104495.47;;;6.83;100.00
51687;BME280;37774;52.192;4.584;2023-02-04T07:50:47;104131.06;;;4.73;100.00
51687;BME280;37774;52.192;4.584;2023-02-04T07:53:14;104507.81;;;6.87;100.00
51687;BME280;37774;52.192;4.584;2023-02-04T07:55:41;104165.84;;;4.91;100.00
51687;BME280;37774;52.192;4.584;2023-02-04T07:58:09;104396.91;;;6.26;100.00
51687;BME280;37774;52.192;4.584;2023-02-04T08:00:36;104204.06;;;5.22;100.00
51687;BME280;37774;52.192;4.584;2023-02-04T08:03:03;104502.25;;;6.95;100.00
51687;BME280;37774;52.192;4.584;2023-02-04T08:05:29;104529.09;;;6.97;100.00
51687;BME280;37774;52.192;4.584;2023-02-04T08:07:57;104508.22;;;6.94;100.00
51687;BME280;37774;52.192;4.584;2023-02-04T08:10:26;104390.06;;;6.27;100.00
51687;BME280;37774;52.192;4.584;2023-02-04T08:12:53;104263.28;;;5.46;100.00
51687;BME280;37774;52.192;4.584;2023-02-04T08:15:20;104536.38;;;7.03;100.00
51687;BME280;37774;52.192;4.584;2023-02-04T08:17:46;104441.81;;;6.54;100.00
51687;BME280;37774;52.192;4.584;2023-02-04T08:20:13;104529.91;;;7.09;100.00
51687;BME280;37774;52.192;4.584;2023-02-04T08:22:41;104534.03;;;7.19;100.00
51687;BME280;37774;52.192;4.584;2023-02-04T08:25:10;104537.59;;;7.21;100.00
51687;BME280;37774;52.192;4.584;2023-02-04T08:27:37;104544.06;;;7.28;100.00
51687;BME280;37774;52.192;4.584;2023-02-04T08:30:05;104409.91;;;6.53;100.00
51687;BME280;37774;52.192;4.584;2023-02-04T08:32:32;104328.47;;;5.94;100.00
51687;BME280;37774;52.192;4.584;2023-02-04T08:34:59;104513.72;;;7.12;100.00
51687;BME280;37774;52.192;4.584;2023-02-04T08:37:26;104466.31;;;6.86;100.00
51687;BME280;37774;52.192;4.584;2023-02-04T08:39:53;104479.16;;;6.98;100.00
51687;BME280;37774;52.192;4.584;2023-02-04T08:42:21;104552.84;;;7.43;100.00
51687;BME280;37774;52.192;4.584;2023-02-04T08:44:48;104549.94;;;7.52;100.00
51687;BME280;37774;52.192;4.584;2023-02-04T08:47:15;104547.38;;;7.52;100.00
51687;BME280;37774;52.192;4.584;2023-02-04T08:49:41;104187.44;;;5.31;100.00
51687;BME280;37774;52.192;4.584;2023-02-04T08:52:08;104517.09;;;7.38;100.00
51687;BME280;37774;52.192;4.584;2023-02-04T08:54:35;104520.78;;;7.14;100.00
51687;BME280;37774;52.192;4.584;2023-02-04T08:57:02;104566.84;;;7.74;100.00
51687;BME280;37774;52.192;4.584;2023-02-04T08:59:30;104246.34;;;5.89;100.00
51687;BME280;37774;52.192;4.584;2023-02-04T09:01:57;104560.59;;;7.84;100.00
51687;BME280;37774;52.192;4.584;2023-02-04T09:04:24;104555.50;;;7.85;100.00
51687;BME280;37774;52.192;4.584;2023-02-04T09:06:52;104558.69;;;7.81;100.00
51687;BME280;37774;52.192;4.584;2023-02-04T09:09:19;104571.41;;;7.92;100.00
51687;BME280;37774;52.192;4.584;2023-02-04T09:11:46;104575.00;;;7.94;100.00
51687;BME280;37774;52.192;4.584;2023-02-04T09:14:13;104575.69;;;8.04;100.00
51687;BME280;37774;52.192;4.584;2023-02-04T09:16:41;104572.41;;;7.94;100.00
51687;BME280;37774;52.192;4.584;2023-02-04T09:19:08;104465.56;;;7.27;100.00
51687;BME280;37774;52.192;4.584;2023-02-04T09:21:37;104573.50;;;7.97;100.00
51687;BME280;37774;52.192;4.584;2023-02-04T09:24:04;104579.38;;;7.95;100.00
51687;BME280;37774;52.192;4.584;2023-02-04T09:26:31;104379.72;;;6.93;100.00
51687;BME280;37774;52.192;4.584;2023-02-04T09:28:57;104573.19;;;8.19;100.00
51687;BME280;37774;52.192;4.584;2023-02-04T09:31:24;104383.09;;;7.05;100.00
51687;BME280;37774;52.192;4.584;2023-02-04T09:33:52;104581.59;;;8.30;100.00
51687;BME280;37774;52.192;4.584;2023-02-04T09:36:19;104573.94;;;8.32;100.00
51687;BME280;37774;52.192;4.584;2023-02-04T09:38:46;104593.25;;;8.37;100.00
51687;BME280;37774;52.192;4.584;2023-02-04T09:41:13;104603.25;;;8.31;100.00
51687;BME280;37774;52.192;4.584;2023-02-04T09:43:43;104572.03;;;8.29;100.00
51687;BME280;37774;52.192;4.584;2023-02-04T09:46:18;104287.47;;;6.65;100.00
51687;BME280;37774;52.192;4.584;2023-02-04T09:48:46;104563.56;;;8.32;100.00
51687;BME280;37774;52.192;4.584;2023-02-04T09:51:18;104555.31;;;8.24;100.00
51687;BME280;37774;52.192;4.584;2023-02-04T09:53:46;104537.09;;;8.23;100.00
51687;BME280;37774;52.192;4.584;2023-02-04T09:56:14;104354.13;;;7.24;100.00
51687;BME280;37774;52.192;4.584;2023-02-04T09:58:41;104503.97;;;8.47;100.00
51687;BME280;37774;52.192;4.584;2023-02-04T10:01:12;104481.38;;;8.44;100.00
51687;BME280;37774;52.192;4.584;2023-02-04T10:03:41;104465.81;;;8.44;100.00
51687;BME280;37774;52.192;4.584;2023-02-04T10:06:12;104451.84;;;8.56;100.00
51687;BME280;37774;52.192;4.584;2023-02-04T10:08:41;104427.81;;;8.45;100.00
51687;BME280;37774;52.192;4.584;2023-02-04T10:11:09;104348.91;;;8.10;100.00
51687;BME280;37774;52.192;4.584;2023-02-04T10:13:38;104400.50;;;8.65;100.00
51687;BME280;37774;52.192;4.584;2023-02-04T10:16:12;104324.06;;;8.28;100.00
51687;BME280;37774;52.192;4.584;2023-02-04T10:18:40;104208.75;;;7.75;100.00
51687;BME280;37774;52.192;4.584;2023-02-04T10:21:14;104228.50;;;8.03;100.00
51687;BME280;37774;52.192;4.584;2023-02-04T10:23:44;104323.25;;;8.74;100.00
51687;BME280;37774;52.192;4.584;2023-02-04T10:26:13;104306.47;;;8.68;100.00
51687;BME280;37774;52.192;4.584;2023-02-04T10:28:41;104282.38;;;8.70;100.00
51687;BME280;37774;52.192;4.584;2023-02-04T10:31:30;104186.69;;;8.12;100.00
51687;BME280;37774;52.192;4.584;2023-02-04T10:34:03;104246.16;;;8.55;100.00
51687;BME280;37774;52.192;4.584;2023-02-04T10:36:29;104254.50;;;8.66;100.00
51687;BME280;37774;52.192;4.584;2023-02-04T10:39:01;104237.50;;;8.71;100.00
51687;BME280;37774;52.192;4.584;2023-02-04T10:41:28;104244.31;;;8.69;100.00
51687;BME280;37774;52.192;4.584;2023-02-04T10:44:03;104071.41;;;7.42;100.00
51687;BME280;37774;52.192;4.584;2023-02-04T10:46:30;104261.25;;;8.62;100.00
51687;BME280;37774;52.192;4.584;2023-02-04T10:48:57;104258.56;;;8.77;100.00
51687;BME280;37774;52.192;4.584;2023-02-04T10:51:24;104279.25;;;9.08;100.00
51687;BME280;37774;52.192;4.584;2023-02-04T10:53:51;104262.06;;;9.10;100.00
51687;BME280;37774;52.192;4.584;2023-02-04T10:56:37;104257.72;;;9.10;100.00
51687;BME280;37774;52.192;4.584;2023-02-04T10:59:05;104252.88;;;9.16;100.00
51687;BME280;37774;52.192;4.584;2023-02-04T11:01:31;104202.16;;;8.73;100.00
51687;BME280;37774;52.192;4.584;2023-02-04T11:03:58;104232.44;;;9.06;100.00
51687;BME280;37774;52.192;4.584;2023-02-04T11:06:25;104240.38;;;9.26;100.00
51687;BME280;37774;52.192;4.584;2023-02-04T11:08:52;104205.75;;;9.25;100.00
51687;BME280;37774;52.192;4.584;2023-02-04T11:11:22;104163.28;;;8.90;100.00
51687;BME280;37774;52.192;4.584;2023-02-04T11:13:59;104187.09;;;8.99;100.00
51687;BME280;37774;52.192;4.584;2023-02-04T11:16:29;104179.97;;;8.95;100.00
51687;BME280;37774;52.192;4.584;2023-02-04T11:18:59;104082.38;;;8.31;100.00
51687;BME280;37774;52.192;4.584;2023-02-04T11:21:27;104203.72;;;9.19;100.00
51687;BME280;37774;52.192;4.584;2023-02-04T11:24:19;104198.63;;;9.21;100.00
51687;BME280;37774;52.192;4.584;2023-02-04T11:26:48;104191.22;;;9.29;100.00
51687;BME280;37774;52.192;4.584;2023-02-04T11:29:28;104161.50;;;9.05;100.00
51687;BME280;37774;52.192;4.584;2023-02-04T11:32:01;104172.88;;;9.42;100.00
51687;BME280;37774;52.192;4.584;2023-02-04T11:34:47;104167.97;;;9.30;100.00
51687;BME280;37774;52.192;4.584;2023-02-04T11:37:27;104179.63;;;9.39;100.00
51687;BME280;37774;52.192;4.584;2023-02-04T11:39:57;104156.47;;;9.43;100.00
51687;BME280;37774;52.192;4.584;2023-02-04T11:42:30;104146.59;;;9.36;100.00
51687;BME280;37774;52.192;4.584;2023-02-04T11:45:00;104151.94;;;9.56;100.00
51687;BME280;37774;52.192;4.584;2023-02-04T11:47:34;103995.69;;;8.75;100.00
51687;BME280;37774;52.192;4.584;2023-02-04T11:50:03;104140.78;;;9.58;100.00
51687;BME280;37774;52.192;4.584;2023-02-04T11:52:34;104145.34;;;9.81;100.00
51687;BME280;37774;52.192;4.584;2023-02-04T11:55:01;104137.09;;;9.71;100.00
51687;BME280;37774;52.192;4.584;2023-02-04T11:57:28;104076.53;;;9.54;100.00
51687;BME280;37774;52.192;4.584;2023-02-04T11:59:55;104137.47;;;9.97;100.00
51687;BME280;37774;52.192;4.584;2023-02-04T12:02:24;104133.91;;;10.13;100.00
51687;BME280;37774;52.192;4.584;2023-02-04T12:04:56;104126.06;;;9.75;100.00
51687;BME280;37774;52.192;4.584;2023-02-04T12:07:26;104070.91;;;9.63;100.00
51687;BME280;37774;52.192;4.584;2023-02-04T12:09:53;104125.72;;;10.23;100.00
51687;BME280;37774;52.192;4.584;2023-02-04T12:12:29;104136.41;;;10.30;100.00
51687;BME280;37774;52.192;4.584;2023-02-04T12:14:58;104115.78;;;10.15;100.00
51687;BME280;37774;52.192;4.584;2023-02-04T12:17:28;104111.41;;;9.96;100.00
51687;BME280;37774;52.192;4.584;2023-02-04T12:19:55;104105.75;;;10.04;100.00
51687;BME280;37774;52.192;4.584;2023-02-04T12:22:21;104036.19;;;9.61;100.00
51687;BME280;37774;52.192;4.584;2023-02-04T12:24:48;104054.44;;;9.81;100.00
51687;BME280;37774;52.192;4.584;2023-02-04T12:27:17;104098.13;;;9.89;100.00
51687;BME280;37774;52.192;4.584;2023-02-04T12:29:43;104065.50;;;9.76;100.00
51687;BME280;37774;52.192;4.584;2023-02-04T12:32:10;104098.75;;;9.84;100.00
51687;BME280;37774;52.192;4.584;2023-02-04T12:34:39;103869.13;;;8.33;100.00
51687;BME280;37774;52.192;4.584;2023-02-04T12:37:06;103691.41;;;7.31;100.00
51687;BME280;37774;52.192;4.584;2023-02-04T12:39:32;104064.16;;;9.48;100.00
51687;BME280;37774;52.192;4.584;2023-02-04T12:41:59;103945.47;;;8.73;100.00
51687;BME280;37774;52.192;4.584;2023-02-04T12:44:26;104111.25;;;9.92;100.00
51687;BME280;37774;52.192;4.584;2023-02-04T12:46:53;104117.41;;;9.94;100.00
51687;BME280;37774;52.192;4.584;2023-02-04T12:49:20;104156.19;;;9.90;100.00
51687;BME280;37774;52.192;4.584;2023-02-04T12:51:50;104088.03;;;9.59;100.00
51687;BME280;37774;52.192;4.584;2023-02-04T12:54:17;104069.44;;;9.50;100.00